Time;durP1;ratioP1;P1;durP2;ratioP2;P2;SDS_P1;SDS_P2;PMS_P1;PMS_P2;Temp;Humidity;BMP_temperature;BMP_pressure;BME280_temperature;BME280_humidity;BME280_pressure;Samples;Min_cycle;Max_cycle;Signal;HPM_P1;HPM_P2
2022/11/15 00:01:17;;;;;;;13.60;10.75;;;12.30;99.90;;;;;;5094931;28;20399;-81
2022/11/15 00:03:43;;;;;;;17.02;11.18;;;12.60;99.90;;;;;;5094706;28;20119;-81
2022/11/15 00:06:09;;;;;;;12.23;10.82;;;12.30;99.90;;;;;;5094620;28;20099;-81
2022/11/15 00:08:34;;;;;;;10.75;9.07;;;12.50;99.90;;;;;;5095256;28;20446;-81
2022/11/15 00:11:02;;;;;;;20.33;14.48;;;12.50;99.90;;;;;;5094200;28;20452;-81
2022/11/15 00:13:29;;;;;;;16.00;12.85;;;12.30;99.90;;;;;;5094727;28;20032;-81
2022/11/15 00:15:58;;;;;;;15.00;13.20;;;12.40;99.90;;;;;;5094943;28;20028;-81
2022/11/15 00:18:23;;;;;;;16.55;13.00;;;12.30;99.90;;;;;;5094644;28;20444;-80
2022/11/15 00:20:49;;;;;;;16.45;12.25;;;12.30;99.90;;;;;;5094359;28;20112;-81
2022/11/15 00:23:14;;;;;;;18.75;14.00;;;12.30;99.90;;;;;;5094263;28;20403;-81
2022/11/15 00:25:40;;;;;;;40.30;25.92;;;12.60;99.90;;;;;;5094515;28;20016;-81
2022/11/15 00:28:06;;;;;;;16.17;12.63;;;12.40;99.90;;;;;;5094771;28;20066;-81
2022/11/15 00:30:32;;;;;;;14.27;11.27;;;12.30;99.90;;;;;;5093959;28;20012;-81
2022/11/15 00:33:05;;;;;;;16.13;10.95;;;12.60;99.90;;;;;;5094493;28;20049;-81
2022/11/15 00:35:34;;;;;;;11.27;9.95;;;12.20;99.90;;;;;;5094714;28;20550;-80
2022/11/15 00:38:01;;;;;;;12.35;9.68;;;12.20;99.90;;;;;;5094339;28;20125;-81
2022/11/15 00:40:26;;;;;;;10.70;8.75;;;12.10;99.90;;;;;;5094384;28;20035;-81
2022/11/15 00:42:52;;;;;;;10.60;9.40;;;12.30;99.90;;;;;;5094304;28;20032;-81
2022/11/15 00:45:17;;;;;;;11.27;10.00;;;12.30;99.90;;;;;;5094053;28;20073;-81
2022/11/15 00:47:47;;;;;;;12.60;9.07;;;12.60;99.90;;;;;;5093585;28;20028;-80
2022/11/15 00:50:13;;;;;;;12.88;8.68;;;12.50;99.90;;;;;;5093936;28;20019;-80
2022/11/15 00:52:39;;;;;;;13.45;10.15;;;11.90;99.90;;;;;;5093890;28;20032;-81
2022/11/15 00:55:05;;;;;;;15.38;11.73;;;11.90;99.90;;;;;;5093925;28;20028;-81
2022/11/15 00:57:30;;;;;;;13.82;11.52;;;12.00;99.90;;;;;;5093883;28;20115;-81
2022/11/15 00:59:56;;;;;;;12.07;9.95;;;12.10;99.90;;;;;;5094189;28;20016;-81
2022/11/15 01:02:21;;;;;;;13.02;10.13;;;12.10;99.90;;;;;;5093050;28;20036;-81
2022/11/15 01:04:47;;;;;;;12.38;11.07;;;11.90;99.90;;;;;;5093788;28;20098;-81
2022/11/15 01:07:13;;;;;;;14.75;10.88;;;11.90;99.90;;;;;;5093630;28;20059;-80
2022/11/15 01:09:38;;;;;;;16.00;11.45;;;11.90;99.90;;;;;;5093579;28;20104;-81
2022/11/15 01:12:04;;;;;;;13.00;11.60;;;12.10;99.90;;;;;;5093484;28;20028;-81
2022/11/15 01:14:30;;;;;;;13.15;11.23;;;12.10;99.90;;;;;;5093459;28;20526;-81
2022/11/15 01:16:56;;;;;;;14.18;10.95;;;12.10;99.90;;;;;;5092913;28;20016;-80
2022/11/15 01:19:22;;;;;;;11.98;10.77;;;12.20;99.90;;;;;;5093902;28;20110;-80
2022/11/15 01:21:51;;;;;;;12.82;11.35;;;12.20;99.90;;;;;;5092804;28;20020;-81
2022/11/15 01:24:16;;;;;;;15.75;11.38;;;12.20;99.90;;;;;;5093280;28;20040;-81
2022/11/15 01:26:42;;;;;;;12.93;11.52;;;12.30;99.90;;;;;;5093201;28;20024;-81
2022/11/15 01:29:08;;;;;;;15.07;12.20;;;12.10;99.90;;;;;;5093685;28;20028;-80
2022/11/15 01:31:33;;;;;;;16.10;12.15;;;12.10;99.90;;;;;;5092910;28;20024;-81
2022/11/15 01:33:59;;;;;;;15.48;11.95;;;12.30;99.90;;;;;;5092973;28;20119;-81
2022/11/15 01:36:24;;;;;;;15.95;11.77;;;12.10;99.90;;;;;;5092857;28;20048;-80
2022/11/15 01:38:55;;;;;;;14.77;12.57;;;12.30;99.90;;;;;;5093369;28;20034;-81
2022/11/15 01:41:24;;;;;;;14.82;11.52;;;12.10;99.90;;;;;;5093009;28;20099;-80
2022/11/15 01:43:53;;;;;;;16.98;12.25;;;12.30;99.90;;;;;;5092692;28;20024;-81
2022/11/15 01:46:21;;;;;;;14.13;12.10;;;12.20;99.90;;;;;;5093632;28;20016;-80
2022/11/15 01:48:49;;;;;;;17.00;12.25;;;12.10;99.90;;;;;;5092921;28;20077;-80
2022/11/15 01:51:17;;;;;;;15.25;12.23;;;12.50;99.90;;;;;;5092902;28;20062;-80
2022/11/15 01:53:45;;;;;;;14.20;11.40;;;12.10;99.90;;;;;;5092844;28;20047;-80
2022/11/15 01:56:21;;;;;;;15.30;11.55;;;12.10;99.90;;;;;;5093126;28;20059;-81
2022/11/15 01:58:47;;;;;;;13.18;11.60;;;12.10;99.90;;;;;;5092713;28;20028;-81
2022/11/15 02:01:14;;;;;;;13.13;11.13;;;12.00;99.90;;;;;;5092365;28;20035;-81
2022/11/15 02:04:13;;;;;;;11.98;10.55;;;12.30;99.90;;;;;;5092556;28;20111;-80
2022/11/15 02:06:39;;;;;;;12.68;10.07;;;12.10;99.90;;;;;;5089289;28;20043;-81
2022/11/15 02:09:05;;;;;;;13.98;11.18;;;11.90;99.90;;;;;;5092557;28;20039;-80
2022/11/15 02:11:31;;;;;;;13.80;10.65;;;11.90;99.90;;;;;;5092641;28;20034;-80
2022/11/15 02:13:59;;;;;;;13.27;10.93;;;12.00;99.90;;;;;;5092839;28;20028;-80
2022/11/15 02:16:34;;;;;;;13.82;10.35;;;11.80;99.90;;;;;;5092053;28;20032;-80
2022/11/15 02:19:28;;;;;;;11.32;10.13;;;11.90;99.90;;;;;;5092454;28;20395;-80
2022/11/15 02:22:14;;;;;;;11.95;9.13;;;11.70;99.90;;;;;;5092331;28;20032;-80
2022/11/15 02:24:58;;;;;;;12.00;9.20;;;11.70;99.90;;;;;;5092014;28;20040;-81
2022/11/15 02:28:05;;;;;;;9.60;8.25;;;11.70;99.90;;;;;;5092349;28;20024;-80
2022/11/15 02:30:33;;;;;;;8.98;7.20;;;11.80;99.90;;;;;;5009802;28;20038;-80
2022/11/15 02:33:20;;;;;;;8.45;6.95;;;11.80;99.90;;;;;;5009896;28;20117;-80
2022/11/15 02:36:08;;;;;;;8.20;6.70;;;11.80;99.90;;;;;;5006557;28;20396;-80
2022/11/15 02:39:15;;;;;;;6.97;6.20;;;11.80;99.90;;;;;;4990515;28;20114;-80
2022/11/15 02:42:01;;;;;;;7.30;6.40;;;11.90;99.90;;;;;;4982738;28;20048;-80
2022/11/15 02:44:39;;;;;;;6.75;6.05;;;12.10;99.90;;;;;;4990157;28;20038;-80
2022/11/15 02:47:13;;;;;;;5.90;5.30;;;11.90;99.90;;;;;;4990372;28;20014;-80
2022/11/15 02:49:41;;;;;;;6.47;4.90;;;11.90;99.90;;;;;;4990488;28;20018;-80
2022/11/15 02:52:07;;;;;;;7.28;5.40;;;11.90;99.90;;;;;;4990504;28;20113;-80
2022/11/15 02:54:34;;;;;;;6.07;5.32;;;11.90;99.90;;;;;;4991263;28;20145;-81
2022/11/15 02:57:06;;;;;;;5.88;4.53;;;11.80;99.90;;;;;;4990873;28;20033;-81
2022/11/15 02:59:44;;;;;;;5.22;4.72;;;11.80;99.90;;;;;;4990036;28;20537;-81
2022/11/15 03:02:26;;;;;;;5.70;4.75;;;11.80;99.90;;;;;;4990895;28;20046;-80
2022/11/15 03:05:12;;;;;;;6.40;5.03;;;11.90;99.90;;;;;;4990371;28;20109;-81
2022/11/15 03:07:54;;;;;;;5.72;4.97;;;11.90;99.90;;;;;;5028829;28;20095;-80
2022/11/15 03:11:02;;;;;;;7.00;5.78;;;12.00;99.90;;;;;;5051932;28;20036;-80
2022/11/15 03:13:37;;;;;;;7.45;4.78;;;12.00;99.90;;;;;;5051383;28;20028;-80
2022/11/15 03:16:17;;;;;;;6.65;5.25;;;12.30;99.90;;;;;;5051736;28;20040;-80
2022/11/15 03:18:49;;;;;;;6.35;4.97;;;12.10;99.90;;;;;;5069459;28;20632;-80
2022/11/15 03:21:18;;;;;;;7.40;5.43;;;12.20;99.90;;;;;;5071724;28;20033;-80
2022/11/15 03:23:46;;;;;;;6.40;5.80;;;12.10;99.90;;;;;;5071677;28;20087;-80
2022/11/15 03:26:15;;;;;;;6.70;6.00;;;12.40;99.90;;;;;;5071575;28;20047;-80
2022/11/15 03:28:47;;;;;;;5.55;5.00;;;12.10;99.90;;;;;;5071246;28;20481;-81
2022/11/15 03:34:04;;;;;;;6.50;5.88;;;12.20;99.90;;;;;;5071800;28;20155;-81
2022/11/15 03:36:33;;;;;;;7.00;5.93;;;12.20;99.90;;;;;;5087960;28;20548;-80
2022/11/15 03:39:04;;;;;;;6.53;5.53;;;12.20;99.90;;;;;;5091779;28;20035;-81
2022/11/15 03:41:43;;;;;;;6.15;5.43;;;12.50;99.90;;;;;;5091657;28;20040;-80
2022/11/15 03:44:26;;;;;;;11.23;8.30;;;12.20;99.90;;;;;;5091538;28;20391;-81
2022/11/15 03:47:13;;;;;;;32.45;20.90;;;12.10;99.90;;;;;;5094329;28;20020;-80
2022/11/15 03:49:45;;;;;;;41.28;27.13;;;12.10;99.90;;;;;;5095101;28;20032;-81
2022/11/15 03:52:11;;;;;;;8.00;7.07;;;12.40;99.90;;;;;;5095537;28;20123;-81
2022/11/15 03:54:37;;;;;;;7.18;6.22;;;12.10;99.90;;;;;;5094941;28;20055;-81
2022/11/15 03:57:02;;;;;;;6.55;5.85;;;12.10;99.90;;;;;;5094646;28;20182;-80
2022/11/15 03:59:28;;;;;;;7.72;5.50;;;12.20;99.90;;;;;;5095018;28;20055;-80
2022/11/15 04:01:53;;;;;;;6.57;5.60;;;12.00;99.90;;;;;;5095738;28;20476;-80
2022/11/15 04:04:19;;;;;;;6.68;5.93;;;12.00;99.90;;;;;;5094839;28;20114;-80
2022/11/15 04:06:45;;;;;;;9.10;5.88;;;12.00;99.90;;;;;;5094903;28;20024;-81
2022/11/15 04:09:10;;;;;;;8.13;5.80;;;12.00;99.90;;;;;;5094934;28;20070;-81
2022/11/15 04:11:36;;;;;;;6.18;5.57;;;12.00;99.90;;;;;;5094355;28;20146;-81
2022/11/15 04:14:02;;;;;;;6.18;5.57;;;12.00;99.90;;;;;;5094680;28;20028;-81
2022/11/15 04:16:27;;;;;;;6.25;5.60;;;12.00;99.90;;;;;;5094701;28;20016;-81
2022/11/15 04:24:22;;;;;;;6.95;5.78;;;12.00;99.90;;;;;;5094361;28;20173;-81
2022/11/15 04:26:48;;;;;;;7.28;6.05;;;12.40;99.90;;;;;;5094215;28;20039;-80
2022/11/15 04:31:57;;;;;;;8.85;7.95;;;12.30;99.90;;;;;;5094319;28;20098;-81
2022/11/15 04:34:23;;;;;;;6.75;5.93;;;12.10;99.90;;;;;;5094576;28;20035;-80
2022/11/15 04:39:33;;;;;;;8.95;6.22;;;12.00;99.90;;;;;;5094450;28;20055;-80
2022/11/15 04:41:58;;;;;;;10.75;9.65;;;12.10;99.90;;;;;;5075839;28;20464;-80
2022/11/15 04:44:24;;;;;;;7.80;7.00;;;12.00;99.90;;;;;;5092739;28;20036;-80
2022/11/15 04:46:49;;;;;;;10.23;7.45;;;12.00;99.90;;;;;;5094652;28;20035;-80
2022/11/15 04:49:15;;;;;;;9.57;6.88;;;12.00;99.90;;;;;;5093830;28;20036;-80
2022/11/15 04:51:41;;;;;;;8.43;7.63;;;12.00;99.90;;;;;;5093969;28;20147;-80
2022/11/15 04:54:06;;;;;;;9.75;8.75;;;12.00;99.90;;;;;;5094200;28;20043;-79
2022/11/15 04:56:32;;;;;;;8.98;7.63;;;11.90;99.90;;;;;;5093874;28;20494;-81
2022/11/15 04:58:57;;;;;;;9.75;8.40;;;11.90;99.90;;;;;;5093734;28;20024;-80
2022/11/15 05:01:23;;;;;;;11.02;8.63;;;11.90;99.90;;;;;;5093807;28;20032;-80
2022/11/15 05:06:33;;;;;;;8.85;7.80;;;11.80;99.90;;;;;;5093909;28;20073;-81
2022/11/15 05:08:58;;;;;;;8.52;7.63;;;12.10;99.90;;;;;;5093287;28;20035;-80
2022/11/15 05:11:24;;;;;;;9.77;8.85;;;11.90;99.90;;;;;;5093720;28;20032;-80
2022/11/15 05:13:50;;;;;;;11.18;8.70;;;11.80;99.90;;;;;;5093839;28;20024;-80
2022/11/15 05:16:15;;;;;;;13.77;10.00;;;11.80;99.90;;;;;;5075300;28;20481;-80
2022/11/15 05:18:41;;;;;;;13.10;10.23;;;11.70;99.90;;;;;;5093227;28;20028;-80
2022/11/15 05:21:12;;;;;;;11.45;9.25;;;11.80;99.90;;;;;;5093561;28;20035;-81
2022/11/15 05:23:39;;;;;;;10.68;9.35;;;11.80;99.90;;;;;;5092841;28;20399;-80
2022/11/15 05:26:06;;;;;;;11.98;9.93;;;11.80;99.90;;;;;;5093337;28;20039;-81
2022/11/15 05:28:32;;;;;;;9.80;8.52;;;11.80;99.90;;;;;;5093665;28;20032;-81
2022/11/15 05:31:06;;;;;;;9.65;8.65;;;11.80;99.90;;;;;;5093260;28;20028;-81
2022/11/15 05:33:33;;;;;;;9.48;8.27;;;11.80;99.90;;;;;;5093255;28;20032;-80
2022/11/15 05:36:07;;;;;;;11.25;8.30;;;11.90;99.90;;;;;;5092944;28;20412;-81
2022/11/15 05:38:33;;;;;;;9.18;8.18;;;11.90;99.90;;;;;;5093061;28;20035;-80
2022/11/15 05:41:01;;;;;;;9.23;8.10;;;11.80;99.90;;;;;;5092967;28;20384;-80
2022/11/15 05:43:29;;;;;;;9.45;8.45;;;11.80;99.90;;;;;;5093028;28;20119;-80
2022/11/15 05:45:55;;;;;;;9.73;8.10;;;11.80;99.90;;;;;;5092951;28;20024;-81
2022/11/15 05:48:20;;;;;;;11.30;9.00;;;11.80;99.90;;;;;;5092763;28;20500;-81
2022/11/15 05:50:47;;;;;;;12.48;9.55;;;11.80;99.90;;;;;;5092807;28;20020;-81
2022/11/15 05:53:15;;;;;;;10.77;9.68;;;11.80;99.90;;;;;;5092544;28;20024;-81
2022/11/15 05:55:41;;;;;;;10.93;9.73;;;11.80;99.90;;;;;;5093188;28;20085;-80
2022/11/15 05:58:07;;;;;;;11.05;9.88;;;11.80;99.90;;;;;;5092751;28;20028;-80
2022/11/15 06:00:33;;;;;;;12.10;10.43;;;11.80;99.90;;;;;;5092871;28;20069;-81
2022/11/15 06:02:59;;;;;;;11.13;9.40;;;11.90;99.90;;;;;;5092477;28;20020;-80
2022/11/15 06:05:24;;;;;;;10.70;9.60;;;12.30;99.90;;;;;;5093037;28;20487;-80
2022/11/15 06:07:50;;;;;;;14.75;10.50;;;11.80;99.90;;;;;;5092020;28;20104;-80
2022/11/15 06:10:15;;;;;;;16.05;12.43;;;12.20;99.90;;;;;;5092421;28;20028;-81
2022/11/15 06:12:41;;;;;;;16.83;12.98;;;11.70;99.90;;;;;;5092478;28;20016;-80
2022/11/15 06:15:07;;;;;;;18.67;12.82;;;11.70;99.90;;;;;;5092490;28;20039;-80
2022/11/15 06:17:33;;;;;;;16.80;11.80;;;11.60;99.90;;;;;;5092330;28;20021;-81
2022/11/15 06:19:58;;;;;;;15.20;11.77;;;11.70;99.90;;;;;;5092437;28;20399;-80
2022/11/15 06:22:24;;;;;;;14.63;12.00;;;11.60;99.90;;;;;;5092022;28;20024;-80
2022/11/15 06:24:49;;;;;;;14.02;12.57;;;11.70;99.90;;;;;;5092635;28;20036;-81
2022/11/15 06:27:15;;;;;;;18.23;14.15;;;11.70;99.90;;;;;;5092265;28;20078;-81
2022/11/15 06:29:41;;;;;;;16.65;14.10;;;11.70;99.90;;;;;;5092273;28;20028;-81
2022/11/15 06:32:06;;;;;;;17.92;14.80;;;11.70;99.90;;;;;;5092183;28;20020;-81
2022/11/15 06:34:32;;;;;;;16.35;13.10;;;11.70;99.90;;;;;;5092000;28;20062;-81
2022/11/15 06:36:58;;;;;;;15.75;13.20;;;11.60;99.90;;;;;;5092326;28;20043;-81
2022/11/15 06:39:23;;;;;;;15.75;13.52;;;11.80;99.90;;;;;;5092093;28;20065;-81
2022/11/15 06:41:49;;;;;;;16.23;13.00;;;11.70;99.90;;;;;;5092234;28;20536;-81
2022/11/15 06:44:14;;;;;;;14.35;11.80;;;11.70;99.90;;;;;;5092045;28;20038;-81
2022/11/15 06:46:40;;;;;;;15.05;10.50;;;11.60;99.90;;;;;;5091995;28;20103;-81
2022/11/15 06:49:05;;;;;;;11.60;10.27;;;11.50;99.90;;;;;;5092015;28;20040;-80
2022/11/15 06:51:31;;;;;;;12.20;9.93;;;11.60;99.90;;;;;;5091910;28;20024;-80
2022/11/15 06:53:57;;;;;;;12.43;10.68;;;11.60;99.90;;;;;;5092318;28;20454;-80
2022/11/15 06:56:22;;;;;;;12.63;10.57;;;11.70;99.90;;;;;;5092154;28;20024;-80
2022/11/15 06:58:48;;;;;;;13.02;10.45;;;11.80;99.90;;;;;;5092019;28;20056;-80
2022/11/15 07:01:13;;;;;;;12.57;10.02;;;12.10;99.90;;;;;;5092354;28;20077;-81
2022/11/15 07:03:41;;;;;;;18.27;9.80;;;11.90;99.90;;;;;;5091752;28;20068;-81
2022/11/15 07:06:08;;;;;;;11.60;10.32;;;12.00;99.90;;;;;;5091997;28;20016;-81
2022/11/15 07:08:34;;;;;;;13.35;10.18;;;12.10;99.90;;;;;;5091944;28;20105;-81
2022/11/15 07:11:02;;;;;;;11.68;10.48;;;12.20;99.90;;;;;;5092017;28;20028;-81
2022/11/15 07:13:32;;;;;;;12.32;10.95;;;12.20;99.90;;;;;;5091976;28;20070;-81
2022/11/15 07:16:01;;;;;;;12.85;10.60;;;12.10;99.90;;;;;;5091849;28;20403;-80
2022/11/15 07:18:27;;;;;;;14.27;11.02;;;12.10;99.90;;;;;;5091514;28;20020;-80
2022/11/15 07:20:52;;;;;;;14.05;11.60;;;12.10;99.90;;;;;;5092785;28;20103;-83
2022/11/15 07:23:18;;;;;;;15.07;10.60;;;12.30;99.90;;;;;;5095420;28;20154;-84
2022/11/15 07:25:44;;;;;;;14.38;10.65;;;12.30;99.90;;;;;;5096177;28;20048;-83
2022/11/15 07:28:10;;;;;;;12.73;10.50;;;12.30;99.90;;;;;;5095399;28;20032;-83
2022/11/15 07:30:35;;;;;;;13.68;10.32;;;12.40;99.90;;;;;;5095488;28;20434;-84
2022/11/15 07:33:01;;;;;;;12.50;9.23;;;12.50;99.90;;;;;;5095551;28;20036;-84
2022/11/15 07:35:28;;;;;;;13.82;10.55;;;12.40;99.90;;;;;;5095266;28;20068;-84
2022/11/15 07:37:55;;;;;;;12.00;10.10;;;12.20;99.90;;;;;;5095177;28;20043;-84
2022/11/15 07:40:21;;;;;;;14.13;10.65;;;12.50;99.90;;;;;;5095408;28;20416;-83
2022/11/15 07:42:53;;;;;;;11.27;10.07;;;12.40;99.90;;;;;;5095311;28;20020;-84
2022/11/15 07:45:20;;;;;;;12.02;9.70;;;12.50;99.90;;;;;;5095356;28;20070;-84
2022/11/15 07:47:47;;;;;;;13.35;10.02;;;12.50;99.90;;;;;;5095430;28;20078;-84
2022/11/15 07:50:13;;;;;;;10.25;8.70;;;12.60;99.90;;;;;;5094715;28;20025;-84
2022/11/15 07:52:38;;;;;;;9.18;7.95;;;12.60;99.90;;;;;;5095609;28;20028;-84
2022/11/15 07:55:04;;;;;;;9.60;7.78;;;12.60;99.90;;;;;;5095369;28;20073;-83
2022/11/15 07:57:30;;;;;;;12.40;8.52;;;12.60;99.90;;;;;;5095124;28;20028;-84
2022/11/15 07:59:56;;;;;;;9.25;7.97;;;12.70;99.90;;;;;;5095182;28;20031;-84
2022/11/15 08:02:21;;;;;;;10.23;7.47;;;12.90;99.90;;;;;;5095312;28;20047;-84
2022/11/15 08:04:47;;;;;;;8.90;6.88;;;12.60;99.90;;;;;;5094484;28;20480;-84
2022/11/15 08:07:13;;;;;;;8.93;7.10;;;12.80;99.90;;;;;;5094961;28;20065;-83
2022/11/15 08:09:38;;;;;;;8.80;7.13;;;12.50;99.90;;;;;;5094863;28;20032;-84
2022/11/15 08:12:05;;;;;;;7.13;6.50;;;12.60;99.90;;;;;;5095219;28;20053;-84
2022/11/15 08:14:31;;;;;;;8.70;6.82;;;12.80;99.90;;;;;;5094681;28;20028;-84
2022/11/15 08:16:56;;;;;;;7.95;6.43;;;12.70;99.90;;;;;;5094479;28;20126;-84
2022/11/15 08:19:22;;;;;;;6.63;5.82;;;12.70;99.90;;;;;;5094695;28;20036;-85
2022/11/15 08:21:48;;;;;;;9.85;6.88;;;12.70;99.90;;;;;;5094644;28;20101;-85
2022/11/15 08:24:13;;;;;;;8.95;7.00;;;12.80;99.90;;;;;;5094561;28;20032;-84
2022/11/15 08:26:39;;;;;;;9.15;7.60;;;12.70;99.90;;;;;;5094848;28;20560;-84
2022/11/15 08:29:07;;;;;;;7.63;6.35;;;12.70;99.90;;;;;;5094324;28;20028;-85
2022/11/15 08:31:32;;;;;;;8.57;6.70;;;12.70;99.90;;;;;;5093874;28;20407;-85
2022/11/15 08:33:58;;;;;;;9.45;6.97;;;12.60;99.90;;;;;;5094359;28;20057;-84
2022/11/15 08:36:24;;;;;;;12.63;8.00;;;12.80;99.90;;;;;;5094235;28;20442;-84
2022/11/15 08:38:49;;;;;;;9.07;8.02;;;12.80;99.90;;;;;;5094331;28;20081;-85
2022/11/15 08:41:36;;;;;;;9.23;8.30;;;12.90;99.90;;;;;;5094111;28;20028;-84
2022/11/15 08:44:02;;;;;;;9.55;8.00;;;13.40;99.90;;;;;;5094176;28;20403;-84
2022/11/15 08:46:27;;;;;;;10.48;9.38;;;13.20;99.90;;;;;;5094450;28;20028;-85
2022/11/15 08:48:53;;;;;;;9.48;8.30;;;13.20;99.90;;;;;;5094299;28;20480;-84
2022/11/15 08:51:19;;;;;;;9.45;8.45;;;13.10;99.90;;;;;;5094221;28;20020;-84
2022/11/15 08:53:44;;;;;;;10.77;8.00;;;13.10;99.90;;;;;;5094095;28;20533;-85
2022/11/15 08:56:12;;;;;;;9.70;8.15;;;13.20;99.90;;;;;;5076249;28;20484;-84
2022/11/15 08:58:38;;;;;;;9.43;8.43;;;13.10;99.90;;;;;;5093985;28;20488;-84
2022/11/15 09:01:04;;;;;;;9.48;8.48;;;13.20;99.90;;;;;;5093498;28;20020;-84
2022/11/15 09:03:30;;;;;;;9.27;8.05;;;13.10;99.90;;;;;;5093606;28;20066;-85
2022/11/15 09:06:00;;;;;;;10.80;8.18;;;13.20;99.90;;;;;;5094146;28;20104;-85
2022/11/15 09:08:30;;;;;;;10.95;8.13;;;13.30;99.90;;;;;;5094244;28;20024;-85
2022/11/15 09:10:56;;;;;;;9.80;7.28;;;13.40;99.90;;;;;;5093890;28;20099;-85
2022/11/15 09:13:21;;;;;;;9.73;7.80;;;13.50;99.90;;;;;;5093680;28;20036;-84
2022/11/15 09:15:47;;;;;;;9.65;7.75;;;13.50;99.90;;;;;;5093298;28;20028;-85
2022/11/15 09:18:13;;;;;;;8.50;7.60;;;13.50;99.90;;;;;;5093764;28;20035;-84
2022/11/15 09:20:38;;;;;;;8.00;7.10;;;13.50;99.90;;;;;;5093664;28;20388;-84
2022/11/15 09:23:05;;;;;;;7.32;6.55;;;13.50;99.90;;;;;;5093620;28;20436;-84
2022/11/15 09:25:31;;;;;;;9.07;6.47;;;13.50;99.90;;;;;;5093674;28;20028;-85
2022/11/15 09:27:57;;;;;;;7.05;6.30;;;13.60;99.90;;;;;;5094005;28;20141;-85
2022/11/15 09:30:23;;;;;;;6.50;5.28;;;13.60;99.90;;;;;;5093105;28;20136;-84
2022/11/15 09:32:49;;;;;;;7.50;5.25;;;13.70;99.90;;;;;;5093374;28;20065;-85
2022/11/15 09:35:15;;;;;;;6.93;4.57;;;13.80;99.90;;;;;;5093098;28;20458;-85
2022/11/15 09:37:40;;;;;;;8.05;5.35;;;13.90;99.90;;;;;;5093709;28;20024;-85
2022/11/15 09:40:15;;;;;;;5.55;4.47;;;14.00;99.90;;;;;;5093194;28;20024;-85
2022/11/15 09:42:52;;;;;;;4.47;4.07;;;14.00;99.90;;;;;;5092829;28;20020;-85
2022/11/15 09:45:36;;;;;;;4.88;3.67;;;13.90;99.90;;;;;;5092725;28;20028;-85
2022/11/15 09:48:36;;;;;;;4.65;3.72;;;14.10;99.90;;;;;;5091772;28;20028;-85
2022/11/15 09:51:04;;;;;;;5.68;4.18;;;14.10;99.90;;;;;;5093049;28;20032;-85
2022/11/15 09:53:32;;;;;;;4.57;4.00;;;14.20;99.90;;;;;;5092956;28;20074;-85
2022/11/15 09:56:05;;;;;;;5.97;3.70;;;14.20;99.90;;;;;;5092911;28;20559;-85
2022/11/15 09:58:34;;;;;;;4.82;4.07;;;14.30;99.90;;;;;;5093369;28;20024;-85
2022/11/15 10:01:06;;;;;;;5.07;4.30;;;14.20;99.90;;;;;;5092545;28;20429;-85
2022/11/15 10:03:37;;;;;;;4.05;3.65;;;14.20;99.90;;;;;;5092740;28;20535;-85
2022/11/15 10:06:04;;;;;;;5.47;3.38;;;14.30;99.90;;;;;;5092836;28;20032;-84
2022/11/15 10:08:39;;;;;;;4.38;3.95;;;14.30;99.90;;;;;;5092655;28;20051;-85
2022/11/15 10:11:13;;;;;;;6.40;3.67;;;14.40;99.90;;;;;;5093158;28;20038;-85
2022/11/15 10:13:42;;;;;;;4.18;3.58;;;14.30;99.90;;;;;;5092400;28;20484;-85
2022/11/15 10:16:39;;;;;;;4.25;3.78;;;14.40;99.90;;;;;;5092932;28;20028;-85
2022/11/15 10:19:07;;;;;;;4.63;3.50;;;14.60;99.90;;;;;;5092615;28;20086;-85
2022/11/15 10:21:49;;;;;;;4.15;3.75;;;14.60;99.90;;;;;;5092902;28;20069;-85
2022/11/15 10:24:20;;;;;;;6.57;4.15;;;14.80;99.90;;;;;;5092322;28;20067;-85
2022/11/15 10:26:49;;;;;;;4.80;3.90;;;14.80;99.90;;;;;;5091482;28;20563;-85
2022/11/15 10:29:20;;;;;;;4.78;4.05;;;14.80;99.90;;;;;;5110089;28;20408;-85
2022/11/15 10:31:45;;;;;;;4.45;4.05;;;14.80;99.90;;;;;;5107328;28;20028;-84
2022/11/15 10:34:20;;;;;;;6.40;4.28;;;14.80;99.90;;;;;;5091913;28;20085;-85
2022/11/15 10:36:53;;;;;;;5.45;4.50;;;14.90;99.90;;;;;;5091836;28;20068;-84
2022/11/15 10:39:19;;;;;;;7.95;4.47;;;15.10;99.90;;;;;;5090704;28;20039;-85
2022/11/15 10:41:44;;;;;;;5.03;3.08;;;14.90;99.90;;;;;;5092229;28;20024;-85
2022/11/15 10:44:12;;;;;;;5.53;3.42;;;15.00;99.90;;;;;;5091335;28;20090;-85
2022/11/15 10:46:40;;;;;;;6.18;3.47;;;14.90;99.90;;;;;;5092377;28;20020;-85
2022/11/15 10:49:13;;;;;;;4.32;3.28;;;15.10;99.90;;;;;;5091138;28;20032;-85
2022/11/15 10:51:49;;;;;;;4.93;3.25;;;15.10;99.90;;;;;;5074214;28;20400;-85
2022/11/15 10:54:34;;;;;;;6.60;3.10;;;15.00;99.90;;;;;;5092175;28;20028;-85
2022/11/15 10:57:05;;;;;;;6.65;3.20;;;14.90;99.90;;;;;;5094423;28;20032;-84
2022/11/15 10:59:35;;;;;;;3.88;3.38;;;15.00;99.90;;;;;;5092835;28;20027;-84
2022/11/15 11:02:01;;;;;;;3.65;3.10;;;15.00;99.90;;;;;;5095596;28;20059;-85
2022/11/15 11:04:27;;;;;;;3.65;3.20;;;14.90;99.90;;;;;;5095141;28;20063;-85
2022/11/15 11:06:58;;;;;;;4.60;3.47;;;14.90;99.90;;;;;;5099823;28;20380;-83
2022/11/15 11:09:33;;;;;;;4.40;3.20;;;14.90;99.90;;;;;;5096288;28;20046;-82
2022/11/15 11:12:00;;;;;;;5.22;3.40;;;15.00;99.90;;;;;;5095185;28;20038;-83
2022/11/15 11:14:37;;;;;;;3.60;3.30;;;14.90;99.90;;;;;;5094912;28;20094;-84
2022/11/15 11:17:17;;;;;;;4.53;3.45;;;15.00;99.90;;;;;;5094888;28;20020;-83
2022/11/15 11:20:18;;;;;;;4.07;3.15;;;14.90;99.90;;;;;;5095941;28;20031;-84
2022/11/15 11:23:11;;;;;;;5.43;3.67;;;14.90;99.90;;;;;;5095338;28;20054;-84
2022/11/15 11:26:06;;;;;;;4.80;3.63;;;14.80;99.90;;;;;;5094226;28;20036;-82
2022/11/15 11:28:50;;;;;;;3.67;3.38;;;14.80;99.90;;;;;;5013041;28;20038;-84
2022/11/15 11:31:31;;;;;;;4.82;3.50;;;14.80;99.90;;;;;;5013289;28;20561;-83
2022/11/15 11:34:15;;;;;;;3.85;3.40;;;14.70;99.90;;;;;;5003348;28;20041;-82
2022/11/15 11:36:41;;;;;;;4.88;3.80;;;14.80;99.90;;;;;;5020731;28;20437;-82
2022/11/15 11:39:41;;;;;;;5.75;4.03;;;14.80;99.90;;;;;;5016382;28;20042;-83
2022/11/15 11:42:34;;;;;;;4.85;3.72;;;15.10;99.90;;;;;;5011518;28;20532;-82
2022/11/15 11:45:05;;;;;;;10.35;3.95;;;15.30;99.90;;;;;;5012740;28;20046;-83
2022/11/15 11:47:37;;;;;;;5.55;3.60;;;15.50;99.90;;;;;;5013157;28;20030;-83
2022/11/15 11:50:15;;;;;;;7.43;4.53;;;15.50;99.90;;;;;;5012057;28;20030;-86
2022/11/15 11:53:12;;;;;;;5.93;4.60;;;15.60;99.90;;;;;;5012559;28;20054;-86
2022/11/15 11:55:54;;;;;;;4.88;3.47;;;15.80;99.90;;;;;;5012691;28;20105;-85
2022/11/15 11:58:25;;;;;;;4.05;3.22;;;16.00;99.90;;;;;;4993367;28;20107;-85
2022/11/15 12:00:58;;;;;;;4.10;3.35;;;15.80;99.90;;;;;;5010065;28;20041;-85
2022/11/15 12:03:42;;;;;;;3.72;3.17;;;15.60;99.90;;;;;;5012782;28;20077;-85
2022/11/15 12:06:33;;;;;;;3.90;3.20;;;15.90;99.90;;;;;;5041993;28;20458;-85
2022/11/15 12:09:06;;;;;;;4.45;3.35;;;16.10;99.90;;;;;;5054915;28;20060;-84
2022/11/15 12:11:45;;;;;;;8.43;3.50;;;16.00;99.90;;;;;;5055578;28;20112;-85
2022/11/15 12:14:36;;;;;;;3.95;3.45;;;16.10;99.90;;;;;;5054636;28;20108;-85
2022/11/15 12:17:02;;;;;;;3.42;3.10;;;16.00;99.90;;;;;;5047351;28;20044;-85
2022/11/15 12:19:29;;;;;;;3.28;3.00;;;15.80;99.90;;;;;;5074495;28;20035;-85
2022/11/15 12:22:15;;;;;;;6.70;3.80;;;15.90;99.90;;;;;;5074780;28;20028;-85
2022/11/15 12:24:48;;;;;;;4.53;3.47;;;15.50;99.90;;;;;;5074018;28;20044;-84
2022/11/15 12:27:26;;;;;;;6.35;3.75;;;15.50;99.90;;;;;;5073459;28;20059;-82
2022/11/15 12:30:04;;;;;;;4.00;3.17;;;15.40;99.90;;;;;;5076875;28;20028;-81
2022/11/15 12:32:35;;;;;;;3.95;3.35;;;15.30;99.90;;;;;;5086242;28;20035;-81
2022/11/15 12:35:03;;;;;;;4.05;3.05;;;15.60;99.90;;;;;;5088119;28;20040;-82
2022/11/15 12:37:50;;;;;;;4.07;3.40;;;15.20;99.90;;;;;;5094258;28;20024;-81
2022/11/15 12:40:20;;;;;;;5.15;3.53;;;15.00;99.90;;;;;;5093629;28;20107;-81
2022/11/15 12:43:13;;;;;;;4.15;3.20;;;15.00;99.90;;;;;;5094506;28;20020;-81
2022/11/15 12:45:44;;;;;;;4.55;3.20;;;15.00;99.90;;;;;;5079186;28;20485;-81
2022/11/15 12:48:16;;;;;;;6.25;3.40;;;15.00;99.90;;;;;;5083284;28;20020;-81
2022/11/15 12:50:51;;;;;;;5.65;3.70;;;15.00;99.90;;;;;;5073578;28;20043;-81
2022/11/15 12:53:22;;;;;;;5.78;3.40;;;15.00;99.90;;;;;;5072762;28;20028;-81
2022/11/15 12:56:12;;;;;;;3.83;3.05;;;15.00;99.90;;;;;;5073917;28;20026;-81
2022/11/15 12:58:43;;;;;;;4.45;2.90;;;14.90;99.90;;;;;;5073119;28;20474;-81
2022/11/15 13:01:10;;;;;;;3.40;3.10;;;14.90;99.90;;;;;;5072957;28;20020;-83
2022/11/15 13:03:55;;;;;;;3.20;2.90;;;14.90;99.90;;;;;;5073340;28;20071;-83
2022/11/15 13:06:40;;;;;;;4.32;3.08;;;14.80;99.90;;;;;;5073201;28;20027;-83
2022/11/15 13:09:37;;;;;;;3.30;2.90;;;15.00;99.90;;;;;;5066213;28;20066;-83
2022/11/15 13:12:08;;;;;;;10.48;3.55;;;15.10;99.90;;;;;;5072651;28;20078;-82
2022/11/15 13:14:48;;;;;;;3.72;3.28;;;15.20;99.90;;;;;;5073200;28;20143;-81